createdAt,value
2019-01-31T10:52:13.000Z,954.58
2019-01-31T10:53:12.947Z,954.55
2019-01-31T10:55:06.202Z,954.51
2019-01-31T10:56:06.116Z,954.46
2019-01-31T10:57:06.066Z,954.50
2019-01-31T10:58:06.016Z,954.51
2019-01-31T10:59:05.964Z,954.46
2019-01-31T11:00:05.914Z,954.47
2019-01-31T11:01:05.864Z,954.48
2019-01-31T11:02:05.816Z,954.48
2019-01-31T11:03:05.765Z,954.45
2019-01-31T11:04:05.717Z,954.44
2019-01-31T11:05:05.669Z,954.47
2019-01-31T11:06:05.638Z,954.41
2019-01-31T11:07:05.581Z,954.44
2019-01-31T11:08:05.524Z,954.45
2019-01-31T11:09:05.498Z,954.44
2019-01-31T11:10:05.439Z,954.43
2019-01-31T11:11:05.377Z,954.40
2019-01-31T11:12:05.345Z,954.44
2019-01-31T11:13:05.290Z,954.44
2019-01-31T11:14:05.244Z,954.47
2019-01-31T11:15:05.197Z,954.42
2019-01-31T11:16:05.152Z,954.48
2019-01-31T11:17:05.108Z,954.46
2019-01-31T11:18:05.057Z,954.45
2019-01-31T11:19:12.053Z,954.44
2019-01-31T11:20:04.985Z,954.46
2019-01-31T11:21:04.921Z,954.44
2019-01-31T11:22:04.873Z,954.43
2019-01-31T11:23:04.829Z,954.40
2019-01-31T11:24:04.802Z,954.42
2019-01-31T11:25:04.737Z,954.45
2019-01-31T11:26:04.692Z,954.43
2019-01-31T11:27:04.646Z,954.42
2019-01-31T11:28:04.605Z,954.41
2019-01-31T11:29:04.556Z,954.42
2019-01-31T11:30:04.511Z,954.40
2019-01-31T11:31:04.466Z,954.44
2019-01-31T11:32:04.418Z,954.40
2019-01-31T11:33:04.380Z,954.42
2019-01-31T11:34:04.328Z,954.45
2019-01-31T11:35:04.288Z,954.44
2019-01-31T11:36:04.239Z,954.41
2019-01-31T11:37:04.195Z,954.44
2019-01-31T11:38:04.150Z,954.45
2019-01-31T11:39:04.104Z,954.44
2019-01-31T11:40:04.060Z,954.45
2019-01-31T11:41:04.027Z,954.42
2019-01-31T11:42:03.979Z,954.46
2019-01-31T11:43:11.620Z,954.42
2019-01-31T11:44:03.889Z,954.41
2019-01-31T11:45:03.837Z,954.42
2019-01-31T11:46:03.802Z,954.43
2019-01-31T11:47:03.754Z,954.42
2019-01-31T11:48:03.706Z,954.39
2019-01-31T11:49:03.723Z,954.40
2019-01-31T11:50:03.642Z,954.39
2019-01-31T11:51:03.570Z,954.42
2019-01-31T11:52:03.552Z,954.39
2019-01-31T11:53:03.488Z,954.41
2019-01-31T11:54:03.454Z,954.39
2019-01-31T11:55:03.395Z,954.39
2019-01-31T11:56:03.347Z,954.38
2019-01-31T11:57:05.558Z,954.40
2019-01-31T11:58:03.364Z,954.39
2019-01-31T11:59:03.228Z,954.41
2019-01-31T12:00:03.170Z,954.39
2019-01-31T12:01:03.135Z,954.35
2019-01-31T12:02:03.089Z,954.38
2019-01-31T12:03:03.044Z,954.33
2019-01-31T12:04:02.989Z,954.38
2019-01-31T12:05:02.961Z,954.38
2019-01-31T12:06:02.969Z,954.38
2019-01-31T12:07:02.858Z,954.37
2019-01-31T12:08:02.809Z,954.37
2019-01-31T12:09:02.770Z,954.35
2019-01-31T12:10:02.729Z,954.34
2019-01-31T12:11:02.678Z,954.39
2019-01-31T12:12:02.643Z,954.39
2019-01-31T12:13:02.598Z,954.43
2019-01-31T12:14:02.538Z,954.40
2019-01-31T12:15:02.504Z,954.45
2019-01-31T12:16:02.458Z,954.47
2019-01-31T12:17:02.413Z,954.47
2019-01-31T12:18:02.367Z,954.48
2019-01-31T12:19:02.324Z,954.49
2019-01-31T12:20:02.278Z,954.50
2019-01-31T12:21:02.247Z,954.49
2019-01-31T12:22:02.183Z,954.50
2019-01-31T12:23:02.146Z,954.53
2019-01-31T12:24:02.119Z,954.48
2019-01-31T12:25:02.057Z,954.52
2019-01-31T12:26:02.035Z,954.54
2019-01-31T12:27:01.987Z,954.54
2019-01-31T12:28:01.955Z,954.56
2019-01-31T12:29:01.881Z,954.57
2019-01-31T12:30:01.831Z,954.56
2019-01-31T12:31:01.790Z,954.55
2019-01-31T12:32:01.743Z,954.53
2019-01-31T12:33:01.702Z,954.57
2019-01-31T12:34:01.657Z,954.54
2019-01-31T12:35:01.611Z,954.53
2019-01-31T12:36:01.567Z,954.49
2019-01-31T12:37:01.525Z,954.49
2019-01-31T12:38:01.477Z,954.48
2019-01-31T12:39:01.436Z,954.48
2019-01-31T12:40:01.391Z,954.48
2019-01-31T12:41:01.347Z,954.46
2019-01-31T12:42:01.300Z,954.46
2019-01-31T12:43:01.257Z,954.44
2019-01-31T12:44:01.213Z,954.44
2019-01-31T12:45:01.166Z,954.45
2019-01-31T12:46:01.125Z,954.41
2019-01-31T12:47:01.083Z,954.41
2019-01-31T12:48:01.042Z,954.44
2019-01-31T12:49:01.035Z,954.43
2019-01-31T12:50:00.976Z,954.41
2019-01-31T12:51:00.907Z,954.40
2019-01-31T12:52:00.860Z,954.36
2019-01-31T12:53:00.824Z,954.38
2019-01-31T12:54:00.770Z,954.37
2019-01-31T12:55:00.724Z,954.36
2019-01-31T12:56:00.688Z,954.34
2019-01-31T12:57:00.636Z,954.30
2019-01-31T12:58:00.596Z,954.30
2019-01-31T12:59:00.565Z,954.27
2019-01-31T13:00:00.585Z,954.26
2019-01-31T13:01:00.459Z,954.24
2019-01-31T13:02:00.424Z,954.25
2019-01-31T13:03:00.368Z,954.27
2019-01-31T13:04:00.336Z,954.28
2019-01-31T13:05:00.351Z,954.34
2019-01-31T13:06:00.239Z,954.31
2019-01-31T13:07:00.196Z,954.32
2019-01-31T13:08:00.151Z,954.36
2019-01-31T13:09:00.107Z,954.30
2019-01-31T13:10:00.098Z,954.34
2019-01-31T13:11:00.017Z,954.30
2019-01-31T13:11:59.987Z,954.32
2019-01-31T13:12:59.929Z,954.29
2019-01-31T13:13:59.890Z,954.32
2019-01-31T13:14:59.841Z,954.32
2019-01-31T13:15:59.798Z,954.29
2019-01-31T13:16:59.758Z,954.31
2019-01-31T13:17:59.718Z,954.28
2019-01-31T13:18:59.665Z,954.27
2019-01-31T13:19:59.621Z,954.26
2019-01-31T13:20:59.585Z,954.25
2019-01-31T13:21:59.533Z,954.20
2019-01-31T13:22:59.495Z,954.19
2019-01-31T13:23:59.445Z,954.14
2019-01-31T13:24:59.401Z,954.16
2019-01-31T13:25:59.369Z,954.14
2019-01-31T13:26:59.312Z,954.10
2019-01-31T13:27:59.277Z,954.12
2019-01-31T13:28:59.227Z,954.09
2019-01-31T13:29:59.183Z,954.11
2019-01-31T13:30:59.141Z,954.09
2019-01-31T13:31:59.095Z,954.10
2019-01-31T13:32:59.052Z,954.07
2019-01-31T13:33:59.029Z,954.07
2019-01-31T13:34:58.962Z,954.06
2019-01-31T13:35:58.947Z,954.08
2019-01-31T13:36:58.874Z,954.05
2019-01-31T13:37:58.871Z,954.07
2019-01-31T13:38:58.807Z,954.07
2019-01-31T13:39:58.764Z,954.10
2019-01-31T13:40:58.739Z,954.06
2019-01-31T13:41:58.669Z,954.03
2019-01-31T13:42:58.608Z,954.05
2019-01-31T13:43:58.585Z,953.99
2019-01-31T13:44:58.521Z,953.98
2019-01-31T13:45:58.481Z,953.99
2019-01-31T13:46:58.434Z,953.97
2019-01-31T13:47:58.393Z,953.92
2019-01-31T13:48:58.346Z,953.97
2019-01-31T13:49:58.312Z,953.96
2019-01-31T13:50:58.257Z,953.97
2019-01-31T13:51:58.212Z,953.96
2019-01-31T13:52:58.239Z,953.98
2019-01-31T13:53:58.130Z,953.99
2019-01-31T13:54:58.081Z,953.97
2019-01-31T13:55:58.040Z,953.96
2019-01-31T13:56:57.993Z,953.97
2019-01-31T13:57:57.947Z,954.00
2019-01-31T13:58:57.898Z,953.98
2019-01-31T14:26:44.253Z,954.15
2019-01-31T14:27:44.216Z,954.16
2019-01-31T14:29:37.398Z,954.10
2019-01-31T14:30:37.345Z,954.13
2019-01-31T14:32:30.154Z,954.15
2019-01-31T14:33:30.056Z,954.11
2019-01-31T14:35:22.869Z,954.13
2019-01-31T14:36:22.803Z,954.14
2019-01-31T14:38:15.609Z,954.15
2019-01-31T14:39:15.545Z,954.14
2019-01-31T14:41:08.355Z,954.13
2019-01-31T14:42:08.286Z,954.09
2019-01-31T14:44:01.286Z,954.13
2019-01-31T14:45:01.255Z,954.11
2019-01-31T14:46:54.200Z,954.10
2019-01-31T14:47:55.824Z,954.08
2019-01-31T14:49:46.946Z,954.08
2019-01-31T14:50:46.866Z,954.09
2019-01-31T14:52:40.105Z,954.06
2019-01-31T14:53:40.061Z,954.08
2019-01-31T14:55:32.875Z,954.06
2019-01-31T14:56:32.810Z,954.07
2019-01-31T14:58:25.624Z,954.06
2019-01-31T14:59:25.565Z,954.07
2019-01-31T15:00:25.520Z,954.10
2019-01-31T15:01:25.475Z,954.08
2019-01-31T15:02:25.425Z,954.06
2019-01-31T15:03:25.388Z,954.06
2019-01-31T15:04:25.339Z,954.04
2019-01-31T15:05:25.298Z,954.01
2019-01-31T15:06:25.260Z,954.02
2019-01-31T15:07:25.205Z,954.00
2019-01-31T15:08:25.159Z,953.96
2019-01-31T15:09:25.115Z,953.95
2019-01-31T15:10:25.076Z,953.93
2019-01-31T15:11:25.047Z,953.94
2019-01-31T15:12:24.993Z,953.91
2019-01-31T15:13:24.935Z,953.91
2019-01-31T15:14:31.559Z,953.91
2019-01-31T15:15:24.846Z,953.95
2019-01-31T15:16:24.885Z,953.89
2019-01-31T15:17:24.759Z,953.90
2019-01-31T15:18:24.712Z,953.92
2019-01-31T15:19:24.669Z,953.91
2019-01-31T15:20:35.894Z,953.87
2019-01-31T15:21:24.579Z,953.94
2019-01-31T15:22:24.535Z,953.90
2019-01-31T15:23:24.500Z,953.91
2019-01-31T15:24:24.450Z,953.86
2019-01-31T15:25:24.403Z,953.88
2019-01-31T15:26:24.357Z,953.90
2019-01-31T15:27:24.354Z,953.88
2019-01-31T15:28:24.269Z,953.89
2019-01-31T15:29:24.229Z,953.85
2019-01-31T15:30:24.175Z,953.85
2019-01-31T15:31:24.138Z,953.83
2019-01-31T15:32:24.095Z,953.83
2019-01-31T15:33:24.048Z,953.84
2019-01-31T15:34:24.005Z,953.83
2019-01-31T15:35:23.962Z,953.84
2019-01-31T15:36:23.916Z,953.82
2019-01-31T15:37:23.872Z,953.80
2019-01-31T15:38:23.835Z,953.80
2019-01-31T15:39:23.783Z,953.81
2019-01-31T15:40:23.740Z,953.78
2019-01-31T15:41:23.695Z,953.78
2019-01-31T15:42:23.650Z,953.80
2019-01-31T15:43:23.606Z,953.78
2019-01-31T15:44:23.560Z,953.78
2019-01-31T15:45:23.518Z,953.74
2019-01-31T15:46:23.470Z,953.70
2019-01-31T15:47:23.431Z,953.71
2019-01-31T15:48:23.382Z,953.67
2019-01-31T15:49:23.394Z,953.72
2019-01-31T15:50:23.374Z,953.71
2019-01-31T15:51:23.257Z,953.70
2019-01-31T15:52:23.249Z,953.72
2019-01-31T15:53:23.195Z,953.66
2019-01-31T15:54:23.135Z,953.67
2019-01-31T15:55:23.076Z,953.69
2019-01-31T15:56:23.028Z,953.69
2019-01-31T15:57:22.985Z,953.72
2019-01-31T15:58:22.944Z,953.65
2019-01-31T15:59:22.896Z,953.69
2019-01-31T16:00:22.861Z,953.66
2019-01-31T16:01:22.809Z,953.66
2019-01-31T16:02:22.764Z,953.62
2019-01-31T16:03:22.723Z,953.64
2019-01-31T16:04:22.676Z,953.63
2019-01-31T16:05:22.635Z,953.66
2019-01-31T16:06:22.593Z,953.66
2019-01-31T16:07:22.574Z,953.65
2019-01-31T16:08:22.506Z,953.63
2019-01-31T16:09:24.274Z,953.61
2019-01-31T16:10:22.418Z,953.60
2019-01-31T16:11:22.369Z,953.61
2019-01-31T16:12:22.323Z,953.61
2019-01-31T16:13:22.351Z,953.55
2019-01-31T16:14:22.288Z,953.57
2019-01-31T16:15:22.192Z,953.59
2019-01-31T16:16:22.146Z,953.61
2019-01-31T16:17:22.106Z,953.60
2019-01-31T16:18:22.080Z,953.64
2019-01-31T16:19:22.033Z,953.57
2019-01-31T16:20:21.986Z,953.56
2019-01-31T16:21:21.929Z,953.55
2019-01-31T16:22:21.882Z,953.54
2019-01-31T16:23:21.844Z,953.53
2019-01-31T16:24:21.795Z,953.55
2019-01-31T16:25:21.757Z,953.55
2019-01-31T16:26:21.727Z,953.52
2019-01-31T16:27:21.794Z,953.52
2019-01-31T16:28:21.633Z,953.50
2019-01-31T16:29:21.579Z,953.44
2019-01-31T16:30:21.532Z,953.45
2019-01-31T16:31:21.488Z,953.41
2019-01-31T16:32:21.440Z,953.40
2019-01-31T16:33:21.399Z,953.40
2019-01-31T16:34:21.359Z,953.36
2019-01-31T16:35:21.310Z,953.34
2019-01-31T16:36:21.275Z,953.34
2019-01-31T16:37:21.224Z,953.34
2019-01-31T16:38:23.902Z,953.32
2019-01-31T16:39:21.134Z,953.35
2019-01-31T16:40:21.086Z,953.34
2019-01-31T16:41:21.049Z,953.31
2019-01-31T16:42:20.997Z,953.32
2019-01-31T16:43:20.961Z,953.38
2019-01-31T16:44:20.910Z,953.37
2019-01-31T16:45:20.873Z,953.35
2019-01-31T16:46:20.820Z,953.34
2019-01-31T16:47:20.779Z,953.32
2019-01-31T16:48:20.816Z,953.31
2019-01-31T16:49:20.691Z,953.29
2019-01-31T16:50:20.652Z,953.31
2019-01-31T16:51:20.604Z,953.31
2019-01-31T16:52:20.571Z,953.32
2019-01-31T16:53:20.522Z,953.33
2019-01-31T16:54:20.471Z,953.28
2019-01-31T16:55:20.427Z,953.29
2019-01-31T16:56:20.382Z,953.33
2019-01-31T16:57:20.341Z,953.27
2019-01-31T16:58:20.296Z,953.25
2019-01-31T16:59:20.250Z,953.25
2019-01-31T17:00:20.210Z,953.25
2019-01-31T17:01:20.158Z,953.25
2019-01-31T17:02:20.122Z,953.23
2019-01-31T17:03:20.082Z,953.26
2019-01-31T17:04:20.033Z,953.24
2019-01-31T17:05:19.985Z,953.28
2019-01-31T17:06:19.952Z,953.27
2019-01-31T17:07:19.896Z,953.29
2019-01-31T17:08:19.855Z,953.28
2019-01-31T17:09:19.822Z,953.26
2019-01-31T17:10:19.774Z,953.26
2019-01-31T17:11:19.722Z,953.27
2019-01-31T17:12:19.674Z,953.21
2019-01-31T17:13:19.777Z,953.17
2019-01-31T17:14:19.583Z,953.18
2019-01-31T17:15:19.594Z,953.16
2019-01-31T17:16:19.495Z,953.15
2019-01-31T17:17:19.467Z,953.14
2019-01-31T17:18:19.414Z,953.18
2019-01-31T17:19:19.367Z,953.16
2019-01-31T17:20:19.341Z,953.15
2019-01-31T17:21:19.277Z,953.11
2019-01-31T17:22:19.236Z,953.13
2019-01-31T17:23:19.188Z,953.12
2019-01-31T17:24:19.144Z,953.09
2019-01-31T17:25:19.098Z,953.15
2019-01-31T17:26:19.055Z,953.13
2019-01-31T17:27:20.628Z,953.12
2019-01-31T17:28:18.973Z,953.14
2019-01-31T17:29:18.926Z,953.15
2019-01-31T17:30:18.884Z,953.11
2019-01-31T17:31:18.837Z,953.09
2019-01-31T17:32:18.795Z,953.08
2019-01-31T17:33:18.749Z,953.06
2019-01-31T17:34:18.753Z,953.04
2019-01-31T17:35:18.663Z,953.06
2019-01-31T17:36:18.624Z,953.08
2019-01-31T17:37:18.568Z,953.08
2019-01-31T17:38:18.527Z,953.12
2019-01-31T17:39:18.482Z,953.14
2019-01-31T17:40:18.443Z,953.09
2019-01-31T17:41:18.396Z,953.06
2019-01-31T17:42:18.348Z,952.98
2019-01-31T17:43:18.305Z,952.97
2019-01-31T17:44:18.262Z,952.97
2019-01-31T17:45:29.629Z,953.00
2019-01-31T17:46:18.175Z,953.00
2019-01-31T17:47:18.142Z,952.95
2019-01-31T17:48:18.086Z,952.94
2019-01-31T17:49:18.042Z,952.89
2019-01-31T17:50:18.016Z,952.82
2019-01-31T17:51:17.960Z,952.82
2019-01-31T17:52:17.911Z,952.84
2019-01-31T17:53:17.867Z,952.84
2019-01-31T17:54:17.813Z,952.81
2019-01-31T17:55:17.784Z,952.83
2019-01-31T17:56:17.736Z,952.76
2019-01-31T17:57:17.686Z,952.76
2019-01-31T17:58:17.666Z,952.75
2019-01-31T17:59:17.596Z,952.70
2019-01-31T18:00:17.643Z,952.66
2019-01-31T18:01:17.518Z,952.67
2019-01-31T18:02:17.467Z,952.68
2019-01-31T18:03:17.421Z,952.66
2019-01-31T18:04:17.383Z,952.64
2019-01-31T18:05:17.333Z,952.65
2019-01-31T18:06:18.891Z,952.60
2019-01-31T18:07:17.275Z,952.59
2019-01-31T18:08:17.201Z,952.55
2019-01-31T18:09:17.193Z,952.47
2019-01-31T18:10:17.110Z,952.42
2019-01-31T18:11:17.080Z,952.40
2019-01-31T18:12:17.020Z,952.31
2019-01-31T18:13:16.980Z,952.34
2019-01-31T18:14:16.933Z,952.35
2019-01-31T18:15:17.005Z,952.38
2019-01-31T18:16:16.846Z,952.43
2019-01-31T18:17:16.902Z,952.49
2019-01-31T18:18:16.755Z,952.52
2019-01-31T18:19:16.723Z,952.52
2019-01-31T18:20:16.667Z,952.49
2019-01-31T18:21:16.616Z,952.49
2019-01-31T18:22:16.614Z,952.47
2019-01-31T18:23:16.537Z,952.47
2019-01-31T18:24:16.507Z,952.38
2019-01-31T18:25:16.441Z,952.39
2019-01-31T18:26:16.402Z,952.37
2019-01-31T18:27:16.355Z,952.30
2019-01-31T18:28:16.316Z,952.26
2019-01-31T18:29:16.268Z,952.23
2019-01-31T18:30:16.224Z,952.20
2019-01-31T18:31:16.175Z,952.21
2019-01-31T18:32:16.146Z,952.18
2019-01-31T18:33:16.090Z,952.15
2019-01-31T18:34:16.047Z,952.15
2019-01-31T18:35:15.998Z,952.18
2019-01-31T18:36:15.964Z,952.19
2019-01-31T18:37:15.908Z,952.17
2019-01-31T18:38:15.871Z,952.18
2019-01-31T18:39:15.826Z,952.19
2019-01-31T18:40:15.780Z,952.21
2019-01-31T18:41:15.757Z,952.18
2019-01-31T18:42:15.693Z,952.21
2019-01-31T18:43:15.658Z,952.20
2019-01-31T18:44:15.604Z,952.17
2019-01-31T18:45:15.555Z,952.21
2019-01-31T18:46:15.515Z,952.25
2019-01-31T18:47:15.471Z,952.28
2019-01-31T18:48:15.426Z,952.27
2019-01-31T18:49:15.378Z,952.32
2019-01-31T18:50:15.369Z,952.35
2019-01-31T18:51:16.140Z,952.39
2019-01-31T18:52:15.253Z,952.38
2019-01-31T18:53:15.201Z,952.37
2019-01-31T18:54:15.160Z,952.36
2019-01-31T18:55:15.113Z,952.39
2019-01-31T18:56:15.110Z,952.40
2019-01-31T18:57:15.025Z,952.33
2019-01-31T18:58:14.982Z,952.34
2019-01-31T18:59:14.938Z,952.36
2019-01-31T19:00:14.894Z,952.34
2019-01-31T19:01:14.847Z,952.34
2019-01-31T19:02:14.805Z,952.32
2019-01-31T19:03:14.761Z,952.32
2019-01-31T19:04:14.722Z,952.32
2019-01-31T19:05:14.777Z,952.32
2019-01-31T19:06:14.635Z,952.33
2019-01-31T19:07:14.583Z,952.31
2019-01-31T19:08:14.596Z,952.31
2019-01-31T19:09:14.495Z,952.30
2019-01-31T19:10:14.455Z,952.25
2019-01-31T19:11:14.405Z,952.16
2019-01-31T19:12:14.565Z,952.08
2019-01-31T19:13:14.318Z,952.04
2019-01-31T19:14:14.571Z,952.05
2019-01-31T19:15:14.232Z,951.94
2019-01-31T19:16:14.195Z,951.87
2019-01-31T19:17:14.140Z,951.80
2019-01-31T19:18:14.095Z,951.74
2019-01-31T19:19:14.053Z,951.66
2019-01-31T19:20:14.010Z,951.64
2019-01-31T19:21:13.964Z,951.65
2019-01-31T19:22:13.917Z,951.67
2019-01-31T19:23:13.867Z,951.70
2019-01-31T19:24:13.828Z,951.74
2019-01-31T19:25:13.782Z,951.72
2019-01-31T19:26:13.743Z,951.71
2019-01-31T19:27:13.704Z,951.67
2019-01-31T19:28:13.656Z,951.59
2019-01-31T19:29:13.609Z,951.57
2019-01-31T19:30:13.562Z,951.51
2019-01-31T19:31:13.518Z,951.51
2019-01-31T19:32:13.473Z,951.52
2019-01-31T19:33:13.442Z,951.50
2019-01-31T19:34:13.386Z,951.45
2019-01-31T19:35:13.368Z,951.37
2019-01-31T19:36:13.296Z,951.34
2019-01-31T19:37:13.273Z,951.33
2019-01-31T19:38:13.208Z,951.37
2019-01-31T19:39:13.164Z,951.38
2019-01-31T19:40:13.117Z,951.36
2019-01-31T19:41:13.079Z,951.32
2019-01-31T19:42:13.050Z,951.28
2019-01-31T19:43:12.984Z,951.23
2019-01-31T19:44:12.936Z,951.19
2019-01-31T19:45:12.905Z,951.17
2019-01-31T19:46:16.452Z,951.18
2019-01-31T19:47:12.821Z,951.13
2019-01-31T19:48:12.762Z,951.19
2019-01-31T19:49:12.722Z,951.21
2019-01-31T19:50:12.677Z,951.18
2019-01-31T19:51:12.637Z,951.12
2019-01-31T19:52:12.666Z,951.09
2019-01-31T19:53:12.545Z,951.09
2019-01-31T19:54:12.498Z,951.10
2019-01-31T19:55:12.464Z,951.03
2019-01-31T19:56:12.412Z,951.07
2019-01-31T19:57:12.448Z,951.05
2019-01-31T19:58:12.329Z,951.03
2019-01-31T19:59:12.287Z,951.05
2019-01-31T20:00:12.240Z,951.00
2019-01-31T20:01:12.191Z,950.98
2019-01-31T20:02:12.160Z,950.93
2019-01-31T20:03:12.113Z,950.92
2019-01-31T20:04:12.053Z,950.91
2019-01-31T20:05:12.009Z,950.82
2019-01-31T20:06:11.965Z,950.83
2019-01-31T20:07:11.920Z,950.78
2019-01-31T20:08:11.873Z,950.74
2019-01-31T20:09:11.831Z,950.73
2019-01-31T20:10:11.790Z,950.73
2019-01-31T20:11:11.743Z,950.71
2019-01-31T20:12:11.697Z,950.68
2019-01-31T20:13:11.654Z,950.65
2019-01-31T20:14:11.611Z,950.65
2019-01-31T20:15:11.565Z,950.67
2019-01-31T20:16:11.539Z,950.67
2019-01-31T20:17:11.489Z,950.70
2019-01-31T20:18:11.434Z,950.68
2019-01-31T20:19:11.386Z,950.71
2019-01-31T20:20:11.343Z,950.71
2019-01-31T20:21:11.298Z,950.73
2019-01-31T20:22:11.257Z,950.65
2019-01-31T20:23:11.231Z,950.69
2019-01-31T20:24:11.159Z,950.65
2019-01-31T20:25:11.181Z,950.72
2019-01-31T20:26:11.071Z,950.64
2019-01-31T20:27:11.033Z,950.63
2019-01-31T20:28:10.990Z,950.64
2019-01-31T20:29:10.942Z,950.57
2019-01-31T20:30:10.900Z,950.59
2019-01-31T20:31:10.855Z,950.58
2019-01-31T20:32:10.806Z,950.55
2019-01-31T20:33:10.790Z,950.57
2019-01-31T20:34:10.720Z,950.59
2019-01-31T20:35:10.677Z,950.58
2019-01-31T20:36:10.627Z,950.55
2019-01-31T20:37:10.590Z,950.54
2019-01-31T20:38:10.539Z,950.47
2019-01-31T20:39:10.500Z,950.47
2019-01-31T20:40:10.455Z,950.50
2019-01-31T20:41:10.414Z,950.50
2019-01-31T20:42:10.366Z,950.43
2019-01-31T20:43:10.324Z,950.45
2019-01-31T20:44:10.309Z,950.41
2019-01-31T20:45:10.234Z,950.38
2019-01-31T20:46:10.186Z,950.38
2019-01-31T20:47:10.254Z,950.37
2019-01-31T20:48:10.096Z,950.35
2019-01-31T20:49:10.060Z,950.34
2019-01-31T20:50:10.008Z,950.33
2019-01-31T20:51:12.638Z,950.29
2019-01-31T20:52:09.920Z,950.25
2019-01-31T20:53:09.878Z,950.29
2019-01-31T20:54:09.832Z,950.28
2019-01-31T20:55:09.789Z,950.26
2019-01-31T20:56:09.744Z,950.27
2019-01-31T20:57:09.708Z,950.28
2019-01-31T20:58:09.657Z,950.25
2019-01-31T20:59:09.617Z,950.27
2019-01-31T21:00:09.566Z,950.28
2019-01-31T21:01:09.532Z,950.25
2019-01-31T21:02:09.480Z,950.29
2019-01-31T21:03:09.439Z,950.28
2019-01-31T21:04:09.385Z,950.30
2019-01-31T21:05:09.348Z,950.29
2019-01-31T21:06:09.395Z,950.31
2019-01-31T21:07:09.258Z,950.33
2019-01-31T21:08:09.210Z,950.29
2019-01-31T21:09:09.172Z,950.31
2019-01-31T21:10:09.118Z,950.29
2019-01-31T21:11:09.157Z,950.29
2019-01-31T21:12:09.053Z,950.31
2019-01-31T21:13:08.994Z,950.26
2019-01-31T21:14:08.960Z,950.25
2019-01-31T21:15:08.904Z,950.25
2019-01-31T21:16:08.861Z,950.24
2019-01-31T21:17:08.896Z,950.23
2019-01-31T21:18:08.807Z,950.22
2019-01-31T21:19:08.723Z,950.22
2019-01-31T21:20:08.679Z,950.18
2019-01-31T21:21:08.706Z,950.16
2019-01-31T21:22:08.600Z,950.13
2019-01-31T21:23:08.549Z,950.12
2019-01-31T21:24:08.516Z,950.11
2019-01-31T21:25:08.458Z,950.08
2019-01-31T21:26:08.418Z,950.08
2019-01-31T21:27:08.369Z,950.02
2019-01-31T21:28:08.324Z,950.00
2019-01-31T21:29:08.281Z,950.03
2019-01-31T21:30:08.251Z,949.98
2019-01-31T21:31:08.193Z,949.96
2019-01-31T21:32:08.143Z,949.94
2019-01-31T21:33:08.100Z,949.95
2019-01-31T21:34:08.098Z,949.86
2019-01-31T21:35:08.016Z,949.83
2019-01-31T21:36:07.977Z,949.83
2019-01-31T21:37:07.926Z,949.82
2019-01-31T21:38:07.892Z,949.81
2019-01-31T21:39:07.840Z,949.82
2019-01-31T21:40:07.801Z,949.81
2019-01-31T21:41:07.746Z,949.77
2019-01-31T21:42:07.978Z,949.71
2019-01-31T21:43:07.661Z,949.70
2019-01-31T21:44:07.618Z,949.70
2019-01-31T21:45:07.571Z,949.68
2019-01-31T21:46:07.536Z,949.69
2019-01-31T21:47:07.491Z,949.71
2019-01-31T21:48:07.444Z,949.71
2019-01-31T21:49:07.397Z,949.72
2019-01-31T21:50:07.357Z,949.70
2019-01-31T21:51:07.306Z,949.74
2019-01-31T21:52:07.258Z,949.74
2019-01-31T21:53:07.220Z,949.70
2019-01-31T21:54:07.245Z,949.71
2019-01-31T21:55:07.131Z,949.68
2019-01-31T21:56:07.087Z,949.67
2019-01-31T21:57:07.046Z,949.63
2019-01-31T21:58:07.037Z,949.65
2019-01-31T21:59:08.952Z,949.60
2019-01-31T22:00:06.906Z,949.57
2019-01-31T22:01:06.862Z,949.53
2019-01-31T22:02:06.822Z,949.56
2019-01-31T22:03:06.772Z,949.52
2019-01-31T22:04:06.725Z,949.56
2019-01-31T22:05:06.695Z,949.59
2019-01-31T22:06:06.641Z,949.56
2019-01-31T22:07:06.597Z,949.57
2019-01-31T22:08:06.584Z,949.60
2019-01-31T22:09:06.506Z,949.56
2019-01-31T22:10:06.461Z,949.55
2019-01-31T22:11:06.418Z,949.54
2019-01-31T22:12:06.374Z,949.46
2019-01-31T22:13:06.327Z,949.52
2019-01-31T22:14:06.284Z,949.44
2019-01-31T22:15:06.247Z,949.45
2019-01-31T22:16:06.194Z,949.39
2019-01-31T22:17:14.278Z,949.37
2019-01-31T22:18:06.148Z,949.34
2019-01-31T22:19:06.064Z,949.33
2019-01-31T22:20:06.018Z,949.28
2019-01-31T22:21:05.976Z,949.24
2019-01-31T22:22:05.930Z,949.24
2019-01-31T22:23:05.892Z,949.21
2019-01-31T22:24:05.840Z,949.17
2019-01-31T22:25:05.883Z,949.15
2019-01-31T22:26:05.764Z,949.14
2019-01-31T22:27:05.709Z,949.15
2019-01-31T22:28:05.664Z,949.14
2019-01-31T22:29:08.291Z,949.06
2019-01-31T22:30:05.575Z,949.12
2019-01-31T22:31:05.528Z,949.09
2019-01-31T22:32:05.484Z,949.06
2019-01-31T22:33:05.436Z,949.09
2019-01-31T22:34:05.403Z,949.02
2019-01-31T22:35:05.350Z,949.04
2019-01-31T22:36:05.307Z,948.99
2019-01-31T22:37:05.261Z,949.02
2019-01-31T22:38:05.214Z,949.01
2019-01-31T22:39:05.170Z,949.05
2019-01-31T22:40:05.129Z,949.03
2019-01-31T22:41:05.082Z,949.04
2019-01-31T22:42:05.040Z,948.95
2019-01-31T22:43:05.023Z,949.00
2019-01-31T22:44:04.948Z,948.96
2019-01-31T22:45:04.904Z,948.96
2019-01-31T22:46:04.869Z,948.91
2019-01-31T22:47:04.816Z,948.90
2019-01-31T22:48:04.781Z,948.89
2019-01-31T22:49:04.728Z,948.82
2019-01-31T22:50:04.690Z,948.85
2019-01-31T22:51:04.643Z,948.90
2019-01-31T22:52:04.649Z,948.87
2019-01-31T22:53:04.549Z,948.89
2019-01-31T22:54:04.511Z,948.88
2019-01-31T22:55:04.462Z,948.87
2019-01-31T22:56:04.415Z,948.85
2019-01-31T22:57:04.373Z,948.86
2019-01-31T22:58:04.328Z,948.79
2019-01-31T22:59:04.282Z,948.77
2019-01-31T23:00:04.239Z,948.77
2019-01-31T23:01:04.195Z,948.75
2019-01-31T23:02:04.151Z,948.75
2019-01-31T23:03:04.116Z,948.75
2019-01-31T23:04:04.058Z,948.63
2019-01-31T23:05:04.016Z,948.68
2019-01-31T23:06:04.076Z,948.62
2019-01-31T23:07:03.945Z,948.62
2019-01-31T23:08:03.885Z,948.59
2019-01-31T23:09:03.839Z,948.61
2019-01-31T23:10:03.821Z,948.61
2019-01-31T23:11:03.745Z,948.60
2019-01-31T23:12:03.708Z,948.57
2019-01-31T23:13:03.674Z,948.53
2019-01-31T23:14:03.615Z,948.52
2019-01-31T23:15:03.578Z,948.48
2019-01-31T23:16:03.525Z,948.45
2019-01-31T23:17:03.501Z,948.39
2019-01-31T23:18:03.436Z,948.47
2019-01-31T23:19:03.392Z,948.38
2019-01-31T23:20:03.354Z,948.39
2019-01-31T23:21:03.319Z,948.34
2019-01-31T23:22:03.259Z,948.32
2019-01-31T23:23:03.214Z,948.27
2019-01-31T23:24:03.170Z,948.26
2019-01-31T23:25:03.138Z,948.28
2019-01-31T23:26:03.084Z,948.23
2019-01-31T23:27:03.049Z,948.29
2019-01-31T23:28:02.998Z,948.31
2019-01-31T23:29:02.945Z,948.33
2019-01-31T23:30:02.909Z,948.34
2019-01-31T23:31:02.866Z,948.31
2019-01-31T23:32:02.815Z,948.28
2019-01-31T23:33:02.786Z,948.28
2019-01-31T23:34:02.722Z,948.25
2019-01-31T23:35:02.677Z,948.25
2019-01-31T23:36:02.634Z,948.19
2019-01-31T23:37:02.589Z,948.23
2019-01-31T23:38:02.568Z,948.18
2019-01-31T23:39:02.898Z,948.16
2019-01-31T23:40:02.455Z,948.11
2019-01-31T23:41:02.420Z,948.13
2019-01-31T23:42:02.368Z,948.13
2019-01-31T23:43:02.323Z,948.10
2019-01-31T23:44:02.286Z,948.11
2019-01-31T23:45:02.237Z,948.12
2019-01-31T23:46:02.201Z,948.08
2019-01-31T23:47:02.144Z,948.08
2019-01-31T23:48:02.093Z,948.09
2019-01-31T23:49:02.074Z,948.05
2019-01-31T23:50:02.011Z,948.03
2019-01-31T23:51:01.970Z,947.98
2019-01-31T23:52:01.946Z,947.98
2019-01-31T23:53:01.877Z,948.01
2019-01-31T23:54:01.828Z,948.01
2019-01-31T23:55:01.789Z,947.99
2019-01-31T23:56:01.736Z,947.99
2019-01-31T23:57:01.690Z,947.97